Layton City
, Layton
Last Weather Update:02/23/2012 6:00:00 PM
Date
ETo
ETc
Rain
Irrigation
Req
Temp
Max
Temp
Min
Temp
Avg
Avg RH
Avg Wind
Avg Solar
inches
inches
incehs
inches
F
F
F
%
%
watts/m2
01/01/2012 0.03" 0.00" 0.00" 0.00" 46.3° 21.0° 29.8° 51.9% 1.8 MPH 89.2w/m2
01/02/2012 0.03" 0.00" 0.00" 0.00" 46.5° 21.0° 30.0° 64.8% 1.7 MPH 85.8w/m2
01/03/2012 0.03" 0.00" 0.00" 0.00" 48.1° 24.1° 33.1° 66.9% 1.8 MPH 90.5w/m2
01/04/2012 0.03" 0.00" 0.00" 0.00" 49.6° 24.3° 33.2° 67.3% 1.8 MPH 85.9w/m2
01/05/2012 0.04" 0.00" 0.00" 0.00" 50.5° 23.3° 34.5° 62.7% 1.7 MPH 88.7w/m2
01/06/2012 0.03" 0.00" 0.00" 0.00" 46.1° 22.3° 33.1° 71.0% 1.6 MPH 91.0w/m2
01/07/2012 0.02" 0.00" 0.20" -0.16" 37.6° 18.5° 29.7° 85.5% 2.7 MPH 49.9w/m2
01/08/2012 0.02" 0.00" 0.15" -0.12" 33.1° 13.0° 23.3° 82.7% 1.2 MPH 83.4w/m2
01/09/2012 0.03" 0.00" 0.03" -0.02" 38.7° 17.7° 25.9° 81.0% 1.2 MPH 96.9w/m2
01/10/2012 0.01" 0.00" 0.00" 0.00" 35.7° 18.1° 23.1° 86.4% 1.6 MPH 90.9w/m2
01/11/2012 0.00" 0.00" 0.00" 0.00" 29.2° 19.4° 23.7° 83.3% 2.0 MPH 4.9w/m2
01/12/2012 0.00" 0.00" 0.00" 0.00" 25.4° 15.6° 21.7° 84.1% 1.5 MPH 0.0w/m2
01/13/2012 0.03" 0.00" 0.00" 0.00" 40.6° 13.9° 23.3° 59.4% 1.4 MPH 84.4w/m2
01/14/2012 0.04" 0.00" 0.00" 0.00" 48.0° 18.5° 29.7° 53.0% 1.7 MPH 99.6w/m2
01/15/2012 0.06" 0.00" 0.00" 0.00" 47.5° 26.3° 40.2° 32.8% 5.5 MPH 51.7w/m2
01/16/2012 0.03" 0.00" 0.00" 0.00" 36.1° 13.1° 23.5° 62.4% 4.5 MPH 76.3w/m2
01/17/2012 0.03" 0.00" 0.00" 0.00" 33.3° 9.6° 21.0° 54.2% 3.0 MPH 104.4w/m2
01/18/2012 0.02" 0.00" 0.52" -0.42" 40.7° 25.5° 33.5° 64.7% 3.9 MPH 32.2w/m2
01/19/2012 0.03" 0.00" 0.25" -0.20" 50.7° 36.3° 42.6° 72.2% 3.6 MPH 26.6w/m2
01/20/2012 0.04" 0.00" 0.04" -0.03" 49.6° 35.9° 43.2° 68.4% 2.4 MPH 52.3w/m2
01/21/2012 0.02" 0.00" 0.96" -0.77" 50.1° 31.6° 38.8° 84.8% 5.4 MPH 5.3w/m2
01/22/2012 0.02" 0.00" 0.18" -0.14" 37.2° 24.5° 31.6° 76.6% 1.5 MPH 49.2w/m2
01/23/2012 0.02" 0.00" 0.17" -0.14" 40.6° 28.3° 33.6° 75.7% 1.8 MPH 42.9w/m2
01/24/2012 0.00" 0.00" 0.00" 0.00" 32.3° 31.5° 31.9° 97.5% 1.1 MPH 0.0w/m2
01/25/2012 0.00" 0.00" 0.00" 0.00" 32.3° 28.8° 31.0° 91.2% 0.7 MPH 0.0w/m2
01/26/2012 0.00" 0.00" 0.00" 0.00" 32.6° 28.6° 30.3° 80.8% 1.1 MPH 0.0w/m2
01/27/2012 0.04" 0.00" 0.02" -0.02" 37.6° 20.5° 31.2° 63.0% 3.2 MPH 62.3w/m2
01/28/2012 0.03" 0.00" 0.00" 0.00" 39.4° 17.5° 26.7° 66.9% 1.4 MPH 88.9w/m2
01/29/2012 0.04" 0.00" 0.00" 0.00" 45.2° 21.4° 29.9° 55.8% 1.6 MPH 93.3w/m2
01/30/2012 0.03" 0.00" 0.00" 0.00" 44.9° 23.6° 31.7° 70.9% 2.0 MPH 78.9w/m2
01/31/2012 0.04" 0.00" 0.00" 0.00" 44.4° 22.7° 31.2° 74.2% 1.8 MPH 98.5w/m2
Totals: 0.80" 0.00" 2.52" -2.02" 50.7° 9.6° 30.5° 70.7% 2.2 MPH 61.4w/m2